createdAt,value
2023-05-12T00:01:18.389Z,89.2
2023-05-12T00:04:18.382Z,88.9
2023-05-12T00:07:18.383Z,88.4
2023-05-12T00:10:18.491Z,88
2023-05-12T00:13:18.407Z,87.6
2023-05-12T00:16:18.408Z,87
2023-05-12T00:19:18.393Z,86.4
2023-05-12T00:22:18.401Z,85.8
2023-05-12T00:25:18.408Z,85.5
2023-05-12T00:28:18.522Z,85.3
2023-05-12T00:31:18.443Z,85.1
2023-05-12T00:34:18.420Z,84.6
2023-05-12T00:37:18.421Z,83.9
2023-05-12T00:40:18.601Z,83.3
2023-05-12T00:43:18.439Z,82.8
2023-05-12T00:46:18.481Z,82.4
2023-05-12T00:49:18.447Z,82.2
2023-05-12T00:52:18.454Z,82.4
2023-05-12T00:55:18.460Z,82
2023-05-12T00:58:18.467Z,81.6
2023-05-12T01:01:18.473Z,81.4
2023-05-12T01:04:18.465Z,81
2023-05-12T01:07:18.466Z,80.8
2023-05-12T01:10:18.743Z,80.8
2023-05-12T01:13:18.473Z,80.7
2023-05-12T01:16:18.486Z,80.7
2023-05-12T01:19:18.531Z,80.8
2023-05-12T01:22:18.490Z,80.9
2023-05-12T01:25:18.490Z,81
2023-05-12T01:28:18.496Z,81.1
2023-05-12T01:31:20.343Z,81
2023-05-12T01:34:18.578Z,81
2023-05-12T01:37:18.516Z,81.3
2023-05-12T01:40:18.679Z,81.4
2023-05-12T01:43:19.804Z,81.3
2023-05-12T01:46:18.540Z,81.5
2023-05-12T01:49:18.529Z,81.7
2023-05-12T01:52:18.527Z,81.5
2023-05-12T01:55:18.530Z,81.6
2023-05-12T01:58:18.544Z,81.5
2023-05-12T02:01:18.561Z,81.2
2023-05-12T02:04:18.552Z,81.1
2023-05-12T02:07:18.555Z,81.1
2023-05-12T02:10:18.784Z,81.1
2023-05-12T02:13:18.564Z,81.2
2023-05-12T02:16:18.604Z,81.3
2023-05-12T02:19:18.572Z,81.6
2023-05-12T02:22:18.568Z,81.7
2023-05-12T02:25:18.599Z,81.9
2023-05-12T02:28:18.575Z,82
2023-05-12T02:31:18.655Z,82.1
2023-05-12T02:34:18.598Z,82.5
2023-05-12T02:37:18.597Z,82.4
2023-05-12T02:40:18.848Z,82.2
2023-05-12T02:43:18.610Z,82.2
2023-05-12T02:46:18.640Z,82.6
2023-05-12T02:49:18.627Z,83.3
2023-05-12T02:52:18.616Z,83.8
2023-05-12T02:55:18.622Z,84.5
2023-05-12T02:58:18.631Z,85
2023-05-12T03:01:18.686Z,84.9
2023-05-12T03:04:18.633Z,85.1
2023-05-12T03:07:18.652Z,85.9
2023-05-12T03:10:18.989Z,86.2
2023-05-12T03:13:18.647Z,86.4
2023-05-12T03:16:19.677Z,87.2
2023-05-12T03:19:18.653Z,88
2023-05-12T03:22:18.658Z,88.1
2023-05-12T03:25:18.664Z,87.7
2023-05-12T03:28:18.657Z,87.4
2023-05-12T03:31:18.712Z,87.3
2023-05-12T03:34:18.671Z,87.6
2023-05-12T03:37:18.680Z,87.8
2023-05-12T03:40:19.171Z,87.6
2023-05-12T03:43:18.691Z,87.4
2023-05-12T03:46:18.734Z,86.7
2023-05-12T03:49:18.692Z,86.5
2023-05-12T03:52:18.695Z,86.3
2023-05-12T03:55:18.703Z,85.9
2023-05-12T03:58:18.701Z,86
2023-05-12T04:01:18.717Z,85.5
2023-05-12T04:04:18.806Z,85.1
2023-05-12T04:07:18.722Z,85
2023-05-12T04:10:18.831Z,84.7
2023-05-12T04:13:18.739Z,84.4
2023-05-12T04:16:18.735Z,83.7
2023-05-12T04:19:18.730Z,82.6
2023-05-12T04:22:18.732Z,81.3
2023-05-12T04:25:18.730Z,80.3
2023-05-12T04:28:18.750Z,79.4
2023-05-12T04:31:18.769Z,78.9
2023-05-12T04:34:18.749Z,78.6
2023-05-12T04:37:18.746Z,78.4
2023-05-12T04:40:19.037Z,77.9
2023-05-12T04:46:18.776Z,77.8
2023-05-12T04:49:18.762Z,77.4
2023-05-12T04:52:18.766Z,77.2
2023-05-12T04:55:18.911Z,77.3
2023-05-12T04:58:18.771Z,77.2
2023-05-12T05:01:18.808Z,77.1
2023-05-12T05:04:18.777Z,77.4
2023-05-12T05:07:18.789Z,77.1
2023-05-12T05:10:18.800Z,76.9
2023-05-12T05:13:18.818Z,76.6
2023-05-12T05:16:18.850Z,76.6
2023-05-12T05:19:22.488Z,76.6
2023-05-12T05:22:18.851Z,76.1
2023-05-12T05:25:19.016Z,76
2023-05-12T05:28:18.857Z,75.9
2023-05-12T05:31:18.917Z,76
2023-05-12T05:34:18.930Z,75.7
2023-05-12T05:37:18.890Z,75.6
2023-05-12T05:40:18.894Z,75.6
2023-05-12T05:43:18.888Z,75.7
2023-05-12T05:46:18.954Z,75.8
2023-05-12T05:49:18.909Z,75.8
2023-05-12T05:52:18.917Z,75.7
2023-05-12T05:55:19.361Z,75.7
2023-05-12T05:58:18.898Z,75.5
2023-05-12T06:01:18.921Z,74.7
2023-05-12T06:04:19.058Z,73.9
2023-05-12T06:07:20.035Z,73.3
2023-05-12T06:10:19.086Z,71.9
2023-05-12T06:13:18.933Z,70.4
2023-05-12T06:16:18.967Z,69.7
2023-05-12T06:19:18.931Z,69.1
2023-05-12T06:22:18.944Z,68.6
2023-05-12T06:25:19.094Z,68.1
2023-05-12T06:28:18.953Z,68.2
2023-05-12T06:31:18.999Z,67.9
2023-05-12T06:34:18.963Z,66.8
2023-05-12T06:37:18.968Z,65.3
2023-05-12T06:40:18.979Z,62.6
2023-05-12T06:43:18.976Z,61.1
2023-05-12T06:46:19.007Z,61.1
2023-05-12T06:49:19.010Z,61.2
2023-05-12T06:52:18.991Z,61.2
2023-05-12T06:55:19.186Z,61.2
2023-05-12T06:58:19.042Z,60.3
2023-05-12T07:01:19.068Z,60.2
2023-05-12T07:04:19.027Z,58.4
2023-05-12T07:07:19.033Z,58.9
2023-05-12T07:10:19.026Z,58
2023-05-12T07:13:19.038Z,58.1
2023-05-12T07:16:19.070Z,57.7
2023-05-12T07:19:19.028Z,57.3
2023-05-12T07:22:20.056Z,57.1
2023-05-12T07:25:19.324Z,56.7
2023-05-12T07:28:19.046Z,56.5
2023-05-12T07:31:19.054Z,56.9
2023-05-12T07:34:19.089Z,57.1
2023-05-12T07:37:19.107Z,56.9
2023-05-12T07:40:19.142Z,57.1
2023-05-12T07:43:19.175Z,56.8
2023-05-12T07:46:19.221Z,56.4
2023-05-12T07:49:19.225Z,56
2023-05-12T07:52:19.269Z,55.9
2023-05-12T07:55:19.522Z,56.1
2023-05-12T07:58:19.337Z,55.6
2023-05-12T08:01:19.368Z,55.9
2023-05-12T08:04:19.430Z,56
2023-05-12T08:07:19.427Z,56.4
2023-05-12T08:10:19.478Z,55.9
2023-05-12T08:13:19.477Z,56.1
2023-05-12T08:16:19.538Z,55.2
2023-05-12T08:19:19.533Z,55.5
2023-05-12T08:22:19.555Z,55.3
2023-05-12T08:25:19.704Z,55.4
2023-05-12T08:28:19.612Z,56
2023-05-12T08:31:19.727Z,55.4
2023-05-12T08:34:19.697Z,55
2023-05-12T08:37:19.691Z,55.4
2023-05-12T08:40:19.717Z,54.1
2023-05-12T08:43:19.740Z,52.3
2023-05-12T08:46:19.791Z,50.1
2023-05-12T08:49:19.791Z,48.8
2023-05-12T08:52:19.813Z,47.8
2023-05-12T08:55:20.023Z,47.7
2023-05-12T08:58:25.257Z,47.9
2023-05-12T09:01:19.958Z,46.8
2023-05-12T09:04:19.972Z,46.4
2023-05-12T09:07:19.972Z,45.2
2023-05-12T09:10:33.342Z,45.2
2023-05-12T09:13:20.011Z,45.5
2023-05-12T09:16:20.068Z,43.7
2023-05-12T09:19:20.066Z,42
2023-05-12T09:22:20.091Z,42.3
2023-05-12T09:25:20.329Z,42.3
2023-05-12T09:28:20.156Z,42
2023-05-12T09:31:20.221Z,42.4
2023-05-12T09:34:20.199Z,41.3
2023-05-12T09:37:20.221Z,41.8
2023-05-12T09:40:20.246Z,40.8
2023-05-12T09:43:20.233Z,41.1
2023-05-12T09:46:20.260Z,39.6
2023-05-12T09:49:20.269Z,39.5
2023-05-12T09:52:20.257Z,39.4
2023-05-12T09:55:20.423Z,39.2
2023-05-12T09:58:20.275Z,38.8
2023-05-12T10:01:23.034Z,37.3
2023-05-12T10:04:20.300Z,36.4
2023-05-12T10:07:20.268Z,36.2
2023-05-12T10:10:20.281Z,37.9
2023-05-12T10:13:20.280Z,37.7
2023-05-12T10:16:20.315Z,34.7
2023-05-12T10:19:20.384Z,33.4
2023-05-12T10:22:20.290Z,33.5
2023-05-12T10:25:20.460Z,32.3
2023-05-12T10:28:20.308Z,33.5
2023-05-12T10:31:20.318Z,32.4
2023-05-12T10:34:20.351Z,32.3
2023-05-12T10:37:20.310Z,31.1
2023-05-12T10:40:20.312Z,31.4
2023-05-12T10:43:20.315Z,31.6
2023-05-12T10:46:20.346Z,32.6
2023-05-12T10:49:20.326Z,33
2023-05-12T10:52:20.328Z,33.5
2023-05-12T10:55:20.422Z,32.6
2023-05-12T10:58:20.769Z,33.9
2023-05-12T11:01:20.586Z,34.1
2023-05-12T11:04:20.529Z,33
2023-05-12T11:07:20.532Z,33.1
2023-05-12T11:10:21.577Z,32.6
2023-05-12T11:13:20.350Z,33.6
2023-05-12T11:16:20.398Z,33.5
2023-05-12T11:19:20.361Z,33.4
2023-05-12T11:22:20.374Z,33.6
2023-05-12T11:25:20.588Z,33.3
2023-05-12T11:28:21.415Z,33.8
2023-05-12T11:31:20.398Z,32.4
2023-05-12T11:34:20.390Z,32.1
2023-05-12T11:37:20.396Z,32.5
2023-05-12T11:40:20.395Z,31.8
2023-05-12T11:43:20.393Z,29.2
2023-05-12T11:46:20.412Z,28.9
2023-05-12T11:49:20.410Z,29.1
2023-05-12T11:52:20.426Z,28.5
2023-05-12T11:55:20.623Z,27.6
2023-05-12T11:58:20.442Z,28
2023-05-12T12:01:20.437Z,28.4
2023-05-12T12:04:20.487Z,29.6
2023-05-12T12:07:20.449Z,28.8
2023-05-12T12:10:20.456Z,28.6
2023-05-12T12:13:20.450Z,29.5
2023-05-12T12:16:20.495Z,29.7
2023-05-12T12:19:20.490Z,31.7
2023-05-12T12:22:20.487Z,31.7
2023-05-12T12:25:20.637Z,32.2
2023-05-12T12:28:20.503Z,31.2
2023-05-12T12:31:20.533Z,30.7
2023-05-12T12:34:20.498Z,31.6
2023-05-12T12:37:20.503Z,32.2
2023-05-12T12:40:20.509Z,31.5
2023-05-12T12:43:20.513Z,32.3
2023-05-12T12:46:20.531Z,32.3
2023-05-12T12:49:20.514Z,32.8
2023-05-12T12:52:20.516Z,32.8
2023-05-12T12:55:20.849Z,32
2023-05-12T12:58:20.561Z,32
2023-05-12T13:01:20.549Z,32
2023-05-12T13:04:20.530Z,31.9
2023-05-12T13:07:20.551Z,32.2
2023-05-12T13:10:20.526Z,32.5
2023-05-12T13:13:20.542Z,31.4
2023-05-12T13:16:20.560Z,33
2023-05-12T13:19:20.547Z,33.2
2023-05-12T13:22:20.562Z,33.8
2023-05-12T13:25:20.632Z,33.5
2023-05-12T13:28:20.546Z,34
2023-05-12T13:31:20.561Z,33.3
2023-05-12T13:34:20.553Z,33.2
2023-05-12T13:37:20.550Z,32.5
2023-05-12T13:40:20.566Z,32.1
2023-05-12T13:43:20.552Z,30.2
2023-05-12T13:46:20.585Z,29.9
2023-05-12T13:49:20.567Z,30.2
2023-05-12T13:52:20.561Z,29.2
2023-05-12T13:55:21.524Z,30.7
2023-05-12T13:58:20.595Z,32.5
2023-05-12T14:01:20.580Z,31.6
2023-05-12T14:04:20.570Z,32.6
2023-05-12T14:07:20.575Z,31.2
2023-05-12T14:10:20.568Z,31
2023-05-12T14:13:20.747Z,32.1
2023-05-12T14:16:20.642Z,32.2
2023-05-12T14:19:20.576Z,32.6
2023-05-12T14:22:26.291Z,32
2023-05-12T14:25:20.741Z,33.2
2023-05-12T14:28:20.607Z,33.9
2023-05-12T14:31:20.598Z,34.9
2023-05-12T14:34:20.575Z,33.2
2023-05-12T14:37:20.583Z,33
2023-05-12T14:40:20.578Z,34.2
2023-05-12T14:43:20.588Z,34
2023-05-12T14:46:20.624Z,34.7
2023-05-12T14:49:20.606Z,35.1
2023-05-12T14:52:20.588Z,34.5
2023-05-12T14:55:20.726Z,33.8
2023-05-12T14:58:20.593Z,33.6
2023-05-12T15:01:20.609Z,33.8
2023-05-12T15:04:20.596Z,33
2023-05-12T15:07:20.597Z,32.9
2023-05-12T15:10:20.601Z,34.1
2023-05-12T15:13:20.628Z,34
2023-05-12T15:16:20.633Z,34.4
2023-05-12T15:19:20.621Z,35.2
2023-05-12T15:22:20.621Z,34.2
2023-05-12T15:25:20.798Z,32
2023-05-12T15:28:20.609Z,32
2023-05-12T15:31:20.629Z,31.8
2023-05-12T15:34:20.619Z,32.5
2023-05-12T15:37:20.608Z,32
2023-05-12T15:40:20.620Z,32.4
2023-05-12T15:43:20.626Z,33.1
2023-05-12T15:46:20.636Z,32.9
2023-05-12T15:49:20.621Z,32.4
2023-05-12T15:52:20.629Z,32.3
2023-05-12T15:55:20.747Z,32
2023-05-12T15:58:20.620Z,32.5
2023-05-12T16:01:20.664Z,32.7
2023-05-12T16:04:20.675Z,33.1
2023-05-12T16:07:20.632Z,32.6
2023-05-12T16:10:20.624Z,32.6
2023-05-12T16:13:20.636Z,33.9
2023-05-12T16:16:20.671Z,33.6
2023-05-12T16:19:20.654Z,32.6
2023-05-12T16:22:20.665Z,32.8
2023-05-12T16:25:20.811Z,33.7
2023-05-12T16:28:20.650Z,33.3
2023-05-12T16:31:20.669Z,33.9
2023-05-12T16:34:20.654Z,34.5
2023-05-12T16:37:20.641Z,34.7
2023-05-12T16:40:20.646Z,34.9
2023-05-12T16:43:20.650Z,35.4
2023-05-12T16:46:20.662Z,34.5
2023-05-12T16:49:20.651Z,34.1
2023-05-12T16:52:20.645Z,34.2
2023-05-12T16:55:20.837Z,34.4
2023-05-12T16:58:20.666Z,34.4
2023-05-12T17:01:20.700Z,35.2
2023-05-12T17:04:20.671Z,34.5
2023-05-12T17:07:20.676Z,34
2023-05-12T17:10:20.682Z,34.7
2023-05-12T17:13:20.669Z,35
2023-05-12T17:16:20.700Z,34.4
2023-05-12T17:19:20.723Z,33.7
2023-05-12T17:22:20.701Z,33.8
2023-05-12T17:25:20.867Z,33.7
2023-05-12T17:28:20.687Z,33.3
2023-05-12T17:31:20.716Z,33.4
2023-05-12T17:34:20.700Z,33.4
2023-05-12T17:37:20.725Z,33.8
2023-05-12T17:40:20.707Z,33.7
2023-05-12T17:43:20.709Z,33.9
2023-05-12T17:46:20.731Z,34
2023-05-12T17:49:20.698Z,34.7
2023-05-12T17:52:20.724Z,34.9
2023-05-12T17:55:20.872Z,35.7
2023-05-12T17:58:20.745Z,36.2
2023-05-12T18:01:21.048Z,37
2023-05-12T18:04:20.735Z,37.4
2023-05-12T18:07:20.727Z,38
2023-05-12T18:10:20.747Z,38.3
2023-05-12T18:13:20.742Z,38.7
2023-05-12T18:16:28.265Z,39.2
2023-05-12T18:19:20.775Z,39.4
2023-05-12T18:22:20.760Z,39.8
2023-05-12T18:25:20.951Z,40.1
2023-05-12T18:28:20.769Z,40.6
2023-05-12T18:31:20.843Z,40.9
2023-05-12T18:34:20.768Z,41.5
2023-05-12T18:37:20.763Z,41.9
2023-05-12T18:40:20.793Z,42.5
2023-05-12T18:43:20.777Z,43
2023-05-12T18:46:20.789Z,43.2
2023-05-12T18:49:20.780Z,43.8
2023-05-12T18:52:20.770Z,44.3
2023-05-12T18:55:20.898Z,44.7
2023-05-12T18:58:20.798Z,45.3
2023-05-12T19:01:20.798Z,45.7
2023-05-12T19:04:20.807Z,46.6
2023-05-12T19:07:20.813Z,47
2023-05-12T19:10:20.813Z,47.8
2023-05-12T19:13:20.798Z,48.2
2023-05-12T19:16:20.958Z,48.7
2023-05-12T19:19:20.823Z,49.4
2023-05-12T19:22:20.827Z,49.7
2023-05-12T19:25:21.023Z,50.2
2023-05-12T19:28:20.815Z,50.6
2023-05-12T19:31:20.862Z,50.7
2023-05-12T19:34:20.847Z,50.8
2023-05-12T19:37:20.847Z,51.1
2023-05-12T19:40:20.828Z,51.4
2023-05-12T19:43:20.831Z,51.5
2023-05-12T19:46:21.020Z,51.6
2023-05-12T19:49:20.844Z,51.7
2023-05-12T19:52:20.855Z,51.8
2023-05-12T19:55:21.004Z,51.9
2023-05-12T19:58:20.866Z,51.9
2023-05-12T20:01:20.887Z,52.1
2023-05-12T20:04:20.872Z,52.1
2023-05-12T20:07:20.874Z,52.3
2023-05-12T20:10:20.881Z,52.5
2023-05-12T20:13:20.881Z,52.6
2023-05-12T20:16:20.918Z,52.7
2023-05-12T20:19:20.874Z,53.1
2023-05-12T20:22:20.893Z,53.1
2023-05-12T20:25:21.069Z,53.2
2023-05-12T20:28:20.903Z,53.2
2023-05-12T20:31:20.926Z,53.4
2023-05-12T20:34:20.922Z,53.6
2023-05-12T20:37:20.900Z,53.8
2023-05-12T20:40:20.925Z,54.2
2023-05-12T20:43:20.927Z,54.2
2023-05-12T20:46:21.063Z,54.4
2023-05-12T20:49:20.927Z,54.7
2023-05-12T20:52:20.925Z,54.7
2023-05-12T20:55:21.051Z,54.8
2023-05-12T20:58:20.945Z,54.9
2023-05-12T21:01:20.981Z,54.9
2023-05-12T21:04:21.009Z,55.8
2023-05-12T21:07:20.952Z,55.9
2023-05-12T21:10:21.153Z,56.2
2023-05-12T21:13:21.009Z,56.4
2023-05-12T21:16:21.011Z,56.2
2023-05-12T21:19:20.977Z,56.3
2023-05-12T21:22:20.991Z,56.5
2023-05-12T21:25:20.990Z,56.3
2023-05-12T21:28:21.001Z,56.6
2023-05-12T21:31:21.001Z,56.6
2023-05-12T21:34:20.992Z,56.6
2023-05-12T21:37:20.991Z,56.9
2023-05-12T21:40:21.144Z,56.9
2023-05-12T21:43:21.004Z,57.1
2023-05-12T21:46:21.021Z,57.7
2023-05-12T21:49:20.996Z,57.8
2023-05-12T21:52:21.013Z,58
2023-05-12T21:55:21.005Z,58.1
2023-05-12T21:58:21.016Z,58.7
2023-05-12T22:01:21.035Z,58.8
2023-05-12T22:04:21.024Z,59.2
2023-05-12T22:07:21.028Z,59
2023-05-12T22:10:21.197Z,59.3
2023-05-12T22:13:21.045Z,59.5
2023-05-12T22:16:25.797Z,59.7
2023-05-12T22:19:21.048Z,59.8
2023-05-12T22:22:21.060Z,60
2023-05-12T22:25:21.109Z,60.2
2023-05-12T22:28:21.070Z,60.2
2023-05-12T22:31:21.128Z,60.3
2023-05-12T22:34:21.077Z,60.4
2023-05-12T22:37:21.093Z,60.3
2023-05-12T22:40:21.277Z,60.4
2023-05-12T22:43:21.108Z,60.4
2023-05-12T22:46:21.135Z,60.7
2023-05-12T22:49:21.119Z,61
2023-05-12T22:52:21.119Z,61
2023-05-12T22:55:21.132Z,61.3
2023-05-12T22:58:21.141Z,61.2
2023-05-12T23:01:21.159Z,61.1
2023-05-12T23:04:21.197Z,61.1
2023-05-12T23:07:21.160Z,61.1
2023-05-12T23:10:21.325Z,61.2
2023-05-12T23:13:21.174Z,61.2
2023-05-12T23:16:21.199Z,61.6
2023-05-12T23:19:21.196Z,61.8
2023-05-12T23:22:21.205Z,62.3
2023-05-12T23:25:21.217Z,62.2
2023-05-12T23:28:21.223Z,62.5
2023-05-12T23:31:21.234Z,62.8
2023-05-12T23:34:21.231Z,62.7
2023-05-12T23:37:21.239Z,63
2023-05-12T23:40:21.540Z,63.1
2023-05-12T23:43:21.255Z,63.3
2023-05-12T23:46:21.297Z,63.6
2023-05-12T23:49:21.276Z,63.8
2023-05-12T23:52:21.281Z,64.1
2023-05-12T23:55:21.297Z,64.3
2023-05-12T23:58:21.295Z,64.4
